createdAt,value
2022-09-01T00:01:52.405Z,80.54
2022-09-01T00:04:40.770Z,80.55
2022-09-01T00:07:31.632Z,81.12
2022-09-01T00:10:21.567Z,79.98
2022-09-01T00:13:10.267Z,80.40
2022-09-01T00:15:59.224Z,80.87
2022-09-01T00:18:50.407Z,80.70
2022-09-01T00:21:41.676Z,80.18
2022-09-01T00:24:30.351Z,79.34
2022-09-01T00:27:20.925Z,78.69
2022-09-01T00:30:16.297Z,79.56
2022-09-01T00:33:04.821Z,80.17
2022-09-01T00:35:53.187Z,80.62
2022-09-01T00:38:41.780Z,80.70
2022-09-01T00:41:32.942Z,80.64
2022-09-01T00:44:26.917Z,81.25
2022-09-01T00:47:19.323Z,81.73
2022-09-01T00:50:09.817Z,81.38
2022-09-01T00:52:58.497Z,80.38
2022-09-01T00:55:46.914Z,81.26
2022-09-01T00:58:36.698Z,80.62
2022-09-01T01:01:26.556Z,80.28
2022-09-01T01:04:15.953Z,78.39
2022-09-01T01:07:04.679Z,77.43
2022-09-01T01:09:53.219Z,77.95
2022-09-01T01:12:43.281Z,77.04
2022-09-01T01:15:32.253Z,77.82
2022-09-01T01:18:23.511Z,79.55
2022-09-01T01:21:36.909Z,78.06
2022-09-01T01:24:28.587Z,77.19
2022-09-01T01:27:21.964Z,79.77
2022-09-01T01:30:13.553Z,78.30
2022-09-01T01:33:02.224Z,79.64
2022-09-01T01:35:53.800Z,79.88
2022-09-01T01:38:44.373Z,80.35
2022-09-01T01:41:35.622Z,80.38
2022-09-01T01:44:28.067Z,80.92
2022-09-01T01:47:20.421Z,81.42
2022-09-01T01:50:11.004Z,82.76
2022-09-01T01:53:00.222Z,82.40
2022-09-01T01:55:49.834Z,80.91
2022-09-01T01:58:40.777Z,80.79
2022-09-01T02:01:32.314Z,81.98
2022-09-01T02:04:21.770Z,80.85
2022-09-01T02:07:12.420Z,80.42
2022-09-01T02:10:02.060Z,81.05
2022-09-01T02:12:50.448Z,81.85
2022-09-01T02:15:44.465Z,81.65
2022-09-01T02:18:36.172Z,81.96
2022-09-01T02:21:27.242Z,81.58
2022-09-01T02:24:16.205Z,81.48
2022-09-01T02:27:06.504Z,82.85
2022-09-01T02:29:56.266Z,82.50
2022-09-01T02:32:46.166Z,81.36
2022-09-01T02:35:37.934Z,81.93
2022-09-01T02:38:29.930Z,83.45
2022-09-01T02:41:22.190Z,82.40
2022-09-01T02:44:12.767Z,81.57
2022-09-01T02:47:01.959Z,81.85
2022-09-01T02:49:52.613Z,79.68
2022-09-01T02:52:41.982Z,80.07
2022-09-01T02:55:30.386Z,80.20
2022-09-01T02:58:20.439Z,79.61
2022-09-01T03:01:21.605Z,80.03
2022-09-01T03:04:12.800Z,79.35
2022-09-01T03:07:02.540Z,78.75
2022-09-01T03:09:52.687Z,78.10
2022-09-01T03:12:41.417Z,78.61
2022-09-01T03:15:31.081Z,79.82
2022-09-01T03:18:19.891Z,78.72
2022-09-01T03:21:10.070Z,80.27
2022-09-01T03:24:02.229Z,80.03
2022-09-01T03:26:52.536Z,79.98
2022-09-01T03:29:41.417Z,81.54
2022-09-01T03:32:30.379Z,83.88
2022-09-01T03:35:19.157Z,81.34
2022-09-01T03:38:07.654Z,82.96
2022-09-01T03:41:02.130Z,82.11
2022-09-01T03:43:55.178Z,82.32
2022-09-01T03:46:44.896Z,84.38
2022-09-01T03:49:33.572Z,83.42
2022-09-01T03:52:30.171Z,82.93
2022-09-01T03:55:23.408Z,83.10
2022-09-01T03:58:19.090Z,83.70
2022-09-01T04:01:11.087Z,83.72
2022-09-01T04:04:02.681Z,84.09
2022-09-01T04:06:53.176Z,84.48
2022-09-01T04:09:44.297Z,84.72
2022-09-01T04:12:33.273Z,84.55
2022-09-01T04:15:23.082Z,84.14
2022-09-01T04:18:10.993Z,84.29
2022-09-01T04:21:00.685Z,84.05
2022-09-01T04:23:49.438Z,84.90
2022-09-01T04:26:38.605Z,84.84
2022-09-01T04:29:28.345Z,84.96
2022-09-01T04:32:22.137Z,85.30
2022-09-01T04:35:17.218Z,84.35
2022-09-01T04:38:08.398Z,83.02
2022-09-01T04:40:57.550Z,81.81
2022-09-01T04:43:47.631Z,82.97
2022-09-01T04:46:38.124Z,83.15
2022-09-01T04:49:33.862Z,82.46
2022-09-01T04:52:22.308Z,82.36
2022-09-01T04:55:17.881Z,83.46
2022-09-01T04:58:10.077Z,83.28
2022-09-01T05:01:00.460Z,82.54
2022-09-01T05:03:56.591Z,83.56
2022-09-01T05:07:01.108Z,84.22
2022-09-01T05:10:01.091Z,81.62
2022-09-01T05:13:23.763Z,82.31
2022-09-01T05:16:15.864Z,81.37
2022-09-01T05:19:07.096Z,82.54
2022-09-01T05:22:00.153Z,81.61
2022-09-01T05:24:51.569Z,80.58
2022-09-01T05:27:49.804Z,82.08
2022-09-01T05:30:42.008Z,80.88
2022-09-01T05:33:30.594Z,80.35
2022-09-01T05:36:23.151Z,80.76
2022-09-01T05:39:14.953Z,79.29
2022-09-01T05:42:04.836Z,79.65
2022-09-01T05:44:54.203Z,78.33
2022-09-01T05:47:43.442Z,77.59
2022-09-01T05:50:32.626Z,76.85
2022-09-01T05:53:25.428Z,77.09
2022-09-01T05:56:16.808Z,75.63
2022-09-01T06:02:17.991Z,74.50
2022-09-01T06:05:07.594Z,73.32
2022-09-01T06:07:57.431Z,72.72
2022-09-01T06:10:47.147Z,72.80
2022-09-01T06:13:37.373Z,72.03
2022-09-01T06:16:27.835Z,71.02
2022-09-01T06:19:17.036Z,70.75
2022-09-01T06:22:10.788Z,70.87
2022-09-01T06:25:02.737Z,70.14
2022-09-01T06:27:58.683Z,68.88
2022-09-01T06:30:49.204Z,68.80
2022-09-01T06:33:39.023Z,68.71
2022-09-01T06:36:28.152Z,68.34
2022-09-01T06:39:20.856Z,67.25
2022-09-01T06:42:15.702Z,67.47
2022-09-01T06:45:11.566Z,66.94
2022-09-01T06:48:01.707Z,66.51
2022-09-01T06:54:00.829Z,64.82
2022-09-01T06:56:54.056Z,64.95
2022-09-01T06:59:43.767Z,65.38
2022-09-01T07:02:36.020Z,64.92
2022-09-01T07:06:09.650Z,64.20
2022-09-01T07:09:20.594Z,63.58
2022-09-01T07:19:13.397Z,64.35
2022-09-01T07:22:35.261Z,63.29
2022-09-01T07:25:20.582Z,63.14
2022-09-01T07:28:17.487Z,63.03
2022-09-01T07:44:13.844Z,61.78
2022-09-01T07:47:52.411Z,62.16
2022-09-01T07:53:40.173Z,61.01
2022-09-01T07:56:37.541Z,60.65
2022-09-01T07:59:30.101Z,60.62
2022-09-01T08:02:25.654Z,61.02
2022-09-01T08:05:18.025Z,61.78
2022-09-01T08:08:18.657Z,64.77
2022-09-01T08:11:10.176Z,62.02
2022-09-01T08:14:00.182Z,63.66
2022-09-01T08:16:53.021Z,61.66
2022-09-01T08:19:44.024Z,61.28
2022-09-01T08:22:35.489Z,60.95
2022-09-01T08:25:36.213Z,59.68
2022-09-01T08:28:27.071Z,60.94
2022-09-01T08:31:20.123Z,59.53
2022-09-01T08:34:12.953Z,58.70
2022-09-01T08:37:02.027Z,57.06
2022-09-01T08:39:50.783Z,56.34
2022-09-01T08:42:49.320Z,58.17
2022-09-01T08:45:47.007Z,58.49
2022-09-01T08:51:55.236Z,61.75
2022-09-01T08:54:47.652Z,59.59
2022-09-01T08:57:39.636Z,60.13
2022-09-01T09:00:54.862Z,58.99
2022-09-01T09:03:50.120Z,58.23
2022-09-01T09:06:49.012Z,56.87
2022-09-01T09:09:49.321Z,55.89
2022-09-01T09:12:56.711Z,56.38
2022-09-01T09:16:06.987Z,55.88
2022-09-01T09:19:02.253Z,56.93
2022-09-01T09:21:52.279Z,57.09
2022-09-01T09:24:50.449Z,54.90
2022-09-01T09:27:42.369Z,54.13
2022-09-01T09:30:32.606Z,53.81
2022-09-01T09:33:51.101Z,55.11
2022-09-01T09:36:41.805Z,52.80
2022-09-01T09:39:30.438Z,51.98
2022-09-01T09:42:19.621Z,52.40
2022-09-01T09:45:22.691Z,52.46
2022-09-01T09:48:28.902Z,50.98
2022-09-01T09:51:22.679Z,51.29
2022-09-01T09:54:17.226Z,51.63
2022-09-01T09:57:13.517Z,52.90
2022-09-01T10:00:07.950Z,53.76
2022-09-01T10:03:08.647Z,51.01
2022-09-01T10:06:12.274Z,52.07
2022-09-01T10:09:05.543Z,51.31
2022-09-01T10:11:58.078Z,54.20
2022-09-01T10:14:53.449Z,52.30
2022-09-01T10:17:44.403Z,53.34
2022-09-01T10:20:34.665Z,53.43
2022-09-01T10:23:27.380Z,51.91
2022-09-01T10:26:26.232Z,50.09
2022-09-01T10:29:18.962Z,51.23
2022-09-01T10:32:31.533Z,49.22
2022-09-01T10:35:24.569Z,48.25
2022-09-01T10:38:18.611Z,49.11
2022-09-01T10:41:15.859Z,51.58
2022-09-01T10:44:12.278Z,48.25
2022-09-01T10:47:16.487Z,46.79
2022-09-01T10:50:23.693Z,50.06
2022-09-01T10:53:17.297Z,51.51
2022-09-01T10:56:23.437Z,52.78
2022-09-01T10:59:31.828Z,52.85
2022-09-01T11:02:23.622Z,53.68
2022-09-01T11:05:19.398Z,53.10
2022-09-01T11:08:26.161Z,52.08
2022-09-01T11:11:31.294Z,49.97
2022-09-01T11:14:23.739Z,48.77
2022-09-01T11:17:15.533Z,48.34
2022-09-01T11:20:08.966Z,49.17
2022-09-01T11:23:04.227Z,47.80
2022-09-01T11:29:02.677Z,48.66
2022-09-01T11:31:53.428Z,49.01
2022-09-01T11:34:43.834Z,48.70
2022-09-01T11:37:34.297Z,49.16
2022-09-01T11:40:25.623Z,50.28
2022-09-01T11:43:19.412Z,49.33
2022-09-01T11:46:18.276Z,49.29
2022-09-01T11:49:10.294Z,46.50
2022-09-01T11:52:00.507Z,46.36
2022-09-01T11:54:50.002Z,46.23
2022-09-01T11:57:40.555Z,48.03
2022-09-01T12:00:32.538Z,47.15
2022-09-01T12:03:23.691Z,44.61
2022-09-01T12:06:21.916Z,44.25
2022-09-01T12:09:10.425Z,44.03
2022-09-01T12:11:59.298Z,45.09
2022-09-01T12:15:05.713Z,42.70
2022-09-01T12:17:55.266Z,42.40
2022-09-01T12:20:43.830Z,42.69
2022-09-01T12:23:36.242Z,40.89
2022-09-01T12:26:27.752Z,40.20
2022-09-01T12:29:18.407Z,38.12
2022-09-01T12:32:07.237Z,36.55
2022-09-01T12:35:05.637Z,35.02
2022-09-01T12:38:30.139Z,34.90
2022-09-01T12:41:32.498Z,35.89
2022-09-01T12:44:34.501Z,35.89
2022-09-01T12:47:50.373Z,37.20
2022-09-01T12:50:48.194Z,39.62
2022-09-01T12:53:37.114Z,40.90
2022-09-01T12:56:32.055Z,40.46
2022-09-01T12:59:36.255Z,41.97
2022-09-01T13:02:34.954Z,42.37
2022-09-01T13:05:33.608Z,41.65
2022-09-01T13:08:28.446Z,43.34
2022-09-01T13:11:20.190Z,39.95
2022-09-01T13:14:10.802Z,43.27
2022-09-01T13:16:59.262Z,44.47
2022-09-01T13:19:47.613Z,45.06
2022-09-01T13:22:36.281Z,44.91
2022-09-01T13:25:25.211Z,44.50
2022-09-01T13:28:14.892Z,44.53
2022-09-01T13:34:22.502Z,43.63
2022-09-01T13:37:12.029Z,43.06
2022-09-01T13:40:01.681Z,43.39
2022-09-01T13:42:52.675Z,43.02
2022-09-01T13:45:42.041Z,40.70
2022-09-01T13:51:42.609Z,40.72
2022-09-01T13:54:30.989Z,40.87
2022-09-01T13:57:19.426Z,41.94
2022-09-01T14:00:11.231Z,40.60
2022-09-01T14:03:03.378Z,39.18
2022-09-01T14:05:53.141Z,39.31
2022-09-01T14:08:41.659Z,40.66
2022-09-01T14:11:30.930Z,38.85
2022-09-01T14:14:19.328Z,38.60
2022-09-01T14:17:07.861Z,39.20
2022-09-01T14:19:57.471Z,39.99
2022-09-01T14:22:48.059Z,40.09
2022-09-01T14:25:37.792Z,40.64
2022-09-01T14:28:26.348Z,38.79
2022-09-01T14:31:16.510Z,37.29
2022-09-01T14:34:05.179Z,37.32
2022-09-01T14:36:57.881Z,36.30
2022-09-01T14:39:51.800Z,36.09
2022-09-01T14:42:40.156Z,35.07
2022-09-01T14:45:29.811Z,35.94
2022-09-01T14:48:20.748Z,36.52
2022-09-01T14:51:10.646Z,37.12
2022-09-01T14:53:59.183Z,38.22
2022-09-01T14:59:58.468Z,41.77
2022-09-01T15:02:47.096Z,41.15
2022-09-01T15:05:39.503Z,41.65
2022-09-01T15:08:28.595Z,44.04
2022-09-01T15:11:21.361Z,44.65
2022-09-01T15:14:11.507Z,46.25
2022-09-01T15:16:59.944Z,46.75
2022-09-01T15:19:48.326Z,47.61
2022-09-01T15:22:36.702Z,47.39
2022-09-01T15:25:25.299Z,47.04
2022-09-01T15:28:14.065Z,46.64
2022-09-01T15:31:03.918Z,45.63
2022-09-01T15:33:52.666Z,44.15
2022-09-01T15:36:42.428Z,43.47
2022-09-01T15:39:37.557Z,43.64
2022-09-01T15:42:26.874Z,42.17
2022-09-01T15:45:19.006Z,41.26
2022-09-01T15:48:09.053Z,41.21
2022-09-01T15:51:17.751Z,41.32
2022-09-01T15:54:11.395Z,41.67
2022-09-01T15:56:59.762Z,42.40
2022-09-01T15:59:48.195Z,42.35
2022-09-01T16:02:37.272Z,42.61
2022-09-01T16:05:27.476Z,43.25
2022-09-01T16:08:15.928Z,43.26
2022-09-01T16:11:09.834Z,44.15
2022-09-01T16:13:58.733Z,45.35
2022-09-01T16:16:57.712Z,46.36
2022-09-01T16:19:54.982Z,46.92
2022-09-01T16:22:49.583Z,48.04
2022-09-01T16:25:37.955Z,47.57
2022-09-01T16:28:29.835Z,48.03
2022-09-01T16:31:24.010Z,48.09
2022-09-01T16:34:18.348Z,48.80
2022-09-01T16:37:15.177Z,48.90
2022-09-01T16:40:19.004Z,49.68
2022-09-01T16:43:16.509Z,49.60
2022-09-01T16:46:10.353Z,50.27
2022-09-01T16:49:09.505Z,50.95
2022-09-01T16:52:05.603Z,50.45
2022-09-01T16:55:15.512Z,50.57
2022-09-01T16:58:18.753Z,49.54
2022-09-01T17:01:36.721Z,50.15
2022-09-01T17:04:32.819Z,50.57
2022-09-01T17:07:30.092Z,51.23
2022-09-01T17:10:31.393Z,51.18
2022-09-01T17:13:28.397Z,51.83
2022-09-01T17:16:22.853Z,52.53
2022-09-01T17:19:17.650Z,52.47
2022-09-01T17:22:09.034Z,53.59
2022-09-01T17:28:02.086Z,54.81
2022-09-01T17:31:00.484Z,55.20
2022-09-01T17:34:01.991Z,55.28
2022-09-01T17:37:02.092Z,55.68
2022-09-01T17:40:00.916Z,56.16
2022-09-01T17:43:00.254Z,57.04
2022-09-01T17:45:55.466Z,58.33
2022-09-01T17:48:51.920Z,58.17
2022-09-01T17:51:46.087Z,58.43
2022-09-01T17:54:41.427Z,58.21
2022-09-01T17:57:38.731Z,58.84
2022-09-01T18:00:34.205Z,59.06
2022-09-01T18:03:44.852Z,59.87
2022-09-01T18:06:37.778Z,58.62
2022-09-01T18:09:30.066Z,59.00
2022-09-01T18:12:22.910Z,59.73
2022-09-01T18:15:13.672Z,60.05
2022-09-01T18:18:07.475Z,60.53
2022-09-01T18:21:01.907Z,61.08
2022-09-01T18:23:55.638Z,61.85
2022-09-01T18:26:47.531Z,62.48
2022-09-01T18:29:36.147Z,62.33
2022-09-01T18:32:39.716Z,62.61
2022-09-01T18:35:40.032Z,63.06
2022-09-01T18:38:38.731Z,63.96
2022-09-01T18:41:38.664Z,64.19
2022-09-01T18:44:42.743Z,63.39
2022-09-01T18:47:33.902Z,62.96
2022-09-01T18:50:27.222Z,63.75
2022-09-01T18:53:30.142Z,63.47
2022-09-01T18:56:32.297Z,63.47
2022-09-01T18:59:46.644Z,63.91
2022-09-01T19:02:49.742Z,64.01
2022-09-01T19:05:55.817Z,63.50
2022-09-01T19:08:54.264Z,64.07
2022-09-01T19:11:56.321Z,63.57
2022-09-01T19:14:55.477Z,64.09
2022-09-01T19:18:02.576Z,64.81
2022-09-01T19:20:56.318Z,64.49
2022-09-01T19:23:51.497Z,65.01
2022-09-01T19:26:43.520Z,65.52
2022-09-01T19:29:41.951Z,66.03
2022-09-01T19:32:32.555Z,66.21
2022-09-01T19:35:21.533Z,67.00
2022-09-01T19:38:14.289Z,66.26
2022-09-01T19:41:11.356Z,66.69
2022-09-01T19:44:08.323Z,67.24
2022-09-01T19:47:04.381Z,67.27
2022-09-01T19:50:00.154Z,67.30
2022-09-01T19:52:55.643Z,67.27
2022-09-01T19:55:50.495Z,67.53
2022-09-01T19:58:47.417Z,67.99
2022-09-01T20:01:44.596Z,67.85
2022-09-01T20:04:42.974Z,67.87
2022-09-01T20:07:37.870Z,67.68
2022-09-01T20:10:51.650Z,68.24
2022-09-01T20:14:08.493Z,68.43
2022-09-01T20:17:01.036Z,67.92
2022-09-01T20:19:56.738Z,67.69
2022-09-01T20:22:53.433Z,68.01
2022-09-01T20:25:47.517Z,68.53
2022-09-01T20:28:45.731Z,68.80
2022-09-01T20:31:38.619Z,68.34
2022-09-01T20:34:34.134Z,69.26
2022-09-01T20:37:31.252Z,69.63
2022-09-01T20:40:27.195Z,69.65
2022-09-01T20:43:20.326Z,70.48
2022-09-01T20:46:08.819Z,70.20
2022-09-01T20:48:58.578Z,70.68
2022-09-01T20:51:55.779Z,70.77
2022-09-01T20:54:54.202Z,71.12
2022-09-01T20:57:51.547Z,71.07
2022-09-01T21:00:49.853Z,71.08
2022-09-01T21:03:45.465Z,71.33
2022-09-01T21:06:48.796Z,72.13
2022-09-01T21:09:52.251Z,71.98
2022-09-01T21:12:49.401Z,72.01
2022-09-01T21:15:45.428Z,72.41
2022-09-01T21:18:46.747Z,71.86
2022-09-01T21:21:44.890Z,71.34
2022-09-01T21:24:34.033Z,71.19
2022-09-01T21:27:27.399Z,71.12
2022-09-01T21:30:17.080Z,71.12
2022-09-01T21:33:06.304Z,71.71
2022-09-01T21:35:54.945Z,72.18
2022-09-01T21:38:43.409Z,72.42
2022-09-01T21:41:31.852Z,72.82
2022-09-01T21:44:22.477Z,72.71
2022-09-01T21:47:10.890Z,73.78
2022-09-01T21:49:59.372Z,73.80
2022-09-01T21:52:48.377Z,74.27
2022-09-01T21:55:37.742Z,75.30
2022-09-01T21:58:26.497Z,75.08
2022-09-01T22:01:16.397Z,75.18
2022-09-01T22:04:05.418Z,75.59
2022-09-01T22:06:53.874Z,76.25
2022-09-01T22:09:43.205Z,76.84
2022-09-01T22:12:31.527Z,77.57
2022-09-01T22:15:22.815Z,78.07
2022-09-01T22:18:13.084Z,76.82
2022-09-01T22:21:05.381Z,77.19
2022-09-01T22:23:53.720Z,76.92
2022-09-01T22:26:43.137Z,77.01
2022-09-01T22:29:31.604Z,76.97
2022-09-01T22:32:23.166Z,77.45
2022-09-01T22:35:14.208Z,78.33
2022-09-01T22:38:02.698Z,78.04
2022-09-01T22:40:56.050Z,78.52
2022-09-01T22:43:44.427Z,78.46
2022-09-01T22:46:34.554Z,78.70
2022-09-01T22:49:22.825Z,77.72
2022-09-01T22:52:12.558Z,78.22
2022-09-01T22:55:03.371Z,77.58
2022-09-01T22:57:51.733Z,77.03
2022-09-01T23:00:45.082Z,76.75
2022-09-01T23:03:33.531Z,76.44
2022-09-01T23:06:28.060Z,75.80
2022-09-01T23:09:18.862Z,76.57
2022-09-01T23:12:07.843Z,76.73
2022-09-01T23:14:56.248Z,75.40
2022-09-01T23:17:44.721Z,75.65
2022-09-01T23:20:33.117Z,74.64
2022-09-01T23:23:21.780Z,76.16
2022-09-01T23:26:13.461Z,75.34
2022-09-01T23:29:02.461Z,76.32
2022-09-01T23:31:50.975Z,75.37
2022-09-01T23:34:39.773Z,75.13
2022-09-01T23:37:29.085Z,76.36
2022-09-01T23:40:18.285Z,75.96
2022-09-01T23:43:07.985Z,75.33
2022-09-01T23:45:57.686Z,75.94
2022-09-01T23:48:46.249Z,75.19
2022-09-01T23:51:34.803Z,74.86
2022-09-01T23:54:23.316Z,75.46
2022-09-01T23:57:12.843Z,74.60
